createdAt,value
2023-04-07T00:01:56.808Z,73.52
2023-04-07T00:04:19.713Z,72.57
2023-04-07T00:06:43.615Z,72.11
2023-04-07T00:09:06.730Z,72.17
2023-04-07T00:11:29.480Z,72.48
2023-04-07T00:13:56.065Z,72.40
2023-04-07T00:16:19.070Z,72.02
2023-04-07T00:18:42.050Z,72.43
2023-04-07T00:21:05.035Z,73.28
2023-04-07T00:23:27.907Z,73.02
2023-04-07T00:25:50.749Z,72.95
2023-04-07T00:28:13.345Z,72.70
2023-04-07T00:30:35.990Z,72.72
2023-04-07T00:32:58.669Z,73.09
2023-04-07T00:35:21.555Z,72.13
2023-04-07T00:37:44.112Z,73.40
2023-04-07T00:40:07.356Z,72.76
2023-04-07T00:42:30.396Z,72.78
2023-04-07T00:44:52.983Z,72.79
2023-04-07T00:47:16.719Z,72.51
2023-04-07T00:49:39.614Z,72.86
2023-04-07T00:52:02.293Z,72.38
2023-04-07T00:54:25.182Z,72.16
2023-04-07T00:56:47.772Z,72.10
2023-04-07T00:59:10.728Z,72.07
2023-04-07T01:01:45.082Z,72.50
2023-04-07T01:04:23.350Z,72.08
2023-04-07T01:06:53.670Z,72.14
2023-04-07T01:09:30.854Z,72.32
2023-04-07T01:12:09.832Z,72.27
2023-04-07T01:14:41.092Z,72.35
2023-04-07T01:17:22.237Z,71.71
2023-04-07T01:20:09.027Z,72.17
2023-04-07T01:22:42.227Z,71.53
2023-04-07T01:25:30.626Z,71.33
2023-04-07T01:28:08.534Z,71.77
2023-04-07T01:30:38.164Z,71.15
2023-04-07T01:33:02.525Z,70.92
2023-04-07T01:35:28.190Z,70.85
2023-04-07T01:37:52.711Z,71.04
2023-04-07T01:40:16.397Z,70.41
2023-04-07T01:42:39.901Z,70.56
2023-04-07T01:45:04.419Z,70.86
2023-04-07T01:47:31.275Z,70.84
2023-04-07T01:49:58.313Z,70.19
2023-04-07T01:52:21.777Z,70.27
2023-04-07T01:54:45.576Z,70.21
2023-04-07T01:57:08.189Z,70.65
2023-04-07T01:59:30.965Z,70.18
2023-04-07T02:01:55.547Z,70.33
2023-04-07T02:04:24.337Z,70.38
2023-04-07T02:07:01.007Z,69.99
2023-04-07T02:09:33.478Z,70.58
2023-04-07T02:12:00.012Z,71.12
2023-04-07T02:14:25.994Z,71.24
2023-04-07T02:16:57.898Z,71.50
2023-04-07T02:19:21.222Z,72.00
2023-04-07T02:21:45.759Z,71.80
2023-04-07T02:24:11.310Z,71.27
2023-04-07T02:26:36.281Z,71.66
2023-04-07T02:28:58.968Z,71.25
2023-04-07T02:31:21.639Z,71.35
2023-04-07T02:33:44.312Z,71.52
2023-04-07T02:36:08.401Z,71.94
2023-04-07T02:38:32.186Z,72.44
2023-04-07T02:40:56.070Z,72.82
2023-04-07T02:43:21.251Z,73.55
2023-04-07T02:45:46.369Z,74.03
2023-04-07T02:48:09.392Z,73.17
2023-04-07T02:50:32.917Z,74.11
2023-04-07T02:52:55.609Z,75.21
2023-04-07T02:55:18.664Z,75.15
2023-04-07T02:57:41.425Z,75.32
2023-04-07T03:00:11.265Z,75.48
2023-04-07T03:03:00.497Z,76.32
2023-04-07T03:05:26.892Z,75.94
2023-04-07T03:07:49.879Z,76.77
2023-04-07T03:10:12.953Z,76.33
2023-04-07T03:12:35.779Z,76.65
2023-04-07T03:14:58.766Z,76.70
2023-04-07T03:17:21.998Z,76.71
2023-04-07T03:19:47.165Z,76.72
2023-04-07T03:22:09.873Z,76.98
2023-04-07T03:24:41.207Z,77.26
2023-04-07T03:27:04.039Z,77.66
2023-04-07T03:29:41.532Z,78.24
2023-04-07T03:32:07.426Z,78.04
2023-04-07T03:34:30.029Z,78.50
2023-04-07T03:36:54.536Z,78.75
2023-04-07T03:39:17.266Z,78.97
2023-04-07T03:41:40.390Z,78.51
2023-04-07T03:44:03.197Z,78.63
2023-04-07T03:46:28.207Z,78.78
2023-04-07T03:48:51.679Z,78.80
2023-04-07T03:51:17.369Z,78.94
2023-04-07T03:53:42.448Z,78.79
2023-04-07T03:56:27.484Z,78.75
2023-04-07T03:58:51.281Z,77.98
2023-04-07T04:01:22.434Z,78.59
2023-04-07T04:03:47.486Z,78.22
2023-04-07T04:06:18.848Z,77.52
2023-04-07T04:08:42.459Z,77.81
2023-04-07T04:11:05.638Z,77.85
2023-04-07T04:13:36.364Z,77.83
2023-04-07T04:16:00.988Z,77.70
2023-04-07T04:18:23.862Z,77.43
2023-04-07T04:20:50.735Z,77.40
2023-04-07T04:23:13.359Z,77.48
2023-04-07T04:25:39.754Z,77.21
2023-04-07T04:28:05.666Z,76.62
2023-04-07T04:30:28.535Z,76.58
2023-04-07T04:32:55.784Z,76.90
2023-04-07T04:35:27.342Z,76.56
2023-04-07T04:38:03.349Z,75.83
2023-04-07T04:40:26.669Z,75.80
2023-04-07T04:42:49.663Z,75.52
2023-04-07T04:45:13.882Z,75.43
2023-04-07T04:47:43.335Z,75.51
2023-04-07T04:50:07.528Z,75.41
2023-04-07T04:52:33.196Z,75.49
2023-04-07T04:54:55.950Z,75.02
2023-04-07T04:57:19.500Z,74.60
2023-04-07T04:59:42.937Z,74.80
2023-04-07T05:02:06.138Z,74.62
2023-04-07T05:04:29.052Z,74.85
2023-04-07T05:07:08.694Z,74.42
2023-04-07T05:09:36.953Z,74.06
2023-04-07T05:11:59.990Z,74.52
2023-04-07T05:14:24.733Z,74.91
2023-04-07T05:16:54.433Z,73.50
2023-04-07T05:19:21.613Z,74.15
2023-04-07T05:21:45.679Z,74.21
2023-04-07T05:24:09.490Z,73.87
2023-04-07T05:26:32.930Z,74.23
2023-04-07T05:28:57.767Z,73.95
2023-04-07T05:31:21.544Z,73.47
2023-04-07T05:33:47.735Z,73.36
2023-04-07T05:36:10.869Z,72.94
2023-04-07T05:38:36.935Z,72.68
2023-04-07T05:41:05.977Z,72.62
2023-04-07T05:43:31.280Z,72.03
2023-04-07T05:45:54.345Z,72.01
2023-04-07T05:48:17.750Z,72.22
2023-04-07T05:50:43.477Z,72.08
2023-04-07T05:53:09.533Z,71.50
2023-04-07T05:55:32.109Z,71.39
2023-04-07T05:57:54.942Z,71.16
2023-04-07T06:00:21.687Z,70.70
2023-04-07T06:02:55.542Z,70.72
2023-04-07T06:05:18.516Z,70.59
2023-04-07T06:07:42.750Z,70.76
2023-04-07T06:10:07.629Z,69.80
2023-04-07T06:12:30.862Z,70.54
2023-04-07T06:14:55.603Z,70.62
2023-04-07T06:17:18.329Z,70.78
2023-04-07T06:19:42.933Z,71.41
2023-04-07T06:22:05.548Z,71.32
2023-04-07T06:24:28.378Z,71.60
2023-04-07T06:26:55.134Z,71.51
2023-04-07T06:29:17.837Z,71.60
2023-04-07T06:31:41.088Z,72.02
2023-04-07T06:34:03.750Z,71.44
2023-04-07T06:36:27.741Z,70.91
2023-04-07T06:38:51.113Z,70.86
2023-04-07T06:41:17.070Z,70.53
2023-04-07T06:43:39.849Z,70.18
2023-04-07T06:46:03.926Z,69.68
2023-04-07T06:48:26.493Z,70.52
2023-04-07T06:50:52.273Z,69.61
2023-04-07T06:53:15.047Z,70.37
2023-04-07T06:55:37.614Z,69.79
2023-04-07T06:58:00.419Z,69.12
2023-04-07T07:00:23.178Z,69.13
2023-04-07T07:02:45.955Z,68.49
2023-04-07T07:05:08.860Z,68.85
2023-04-07T07:07:31.557Z,68.60
2023-04-07T07:09:55.632Z,68.71
2023-04-07T07:12:18.360Z,68.27
2023-04-07T07:14:40.971Z,68.06
2023-04-07T07:17:03.606Z,67.68
2023-04-07T07:19:26.349Z,67.84
2023-04-07T07:21:49.106Z,67.82
2023-04-07T07:24:11.798Z,66.90
2023-04-07T07:26:34.424Z,67.31
2023-04-07T07:28:57.120Z,67.65
2023-04-07T07:31:20.115Z,68.43
2023-04-07T07:33:44.307Z,68.23
2023-04-07T07:36:08.208Z,67.77
2023-04-07T07:38:31.011Z,67.67
2023-04-07T07:40:53.942Z,67.70
2023-04-07T07:43:18.071Z,69.10
2023-04-07T07:45:40.893Z,68.48
2023-04-07T07:48:03.703Z,68.46
2023-04-07T07:50:26.634Z,69.90
2023-04-07T07:52:49.302Z,69.93
2023-04-07T07:55:12.227Z,69.56
2023-04-07T07:57:34.918Z,69.04
2023-04-07T07:59:58.102Z,70.45
2023-04-07T08:02:20.945Z,70.92
2023-04-07T08:04:43.556Z,71.23
2023-04-07T08:07:06.511Z,71.16
2023-04-07T08:09:29.457Z,71.84
2023-04-07T08:11:53.106Z,71.75
2023-04-07T08:14:16.243Z,71.98
2023-04-07T08:16:38.918Z,71.21
2023-04-07T08:19:01.884Z,70.73
2023-04-07T08:21:24.631Z,71.58
2023-04-07T08:23:47.473Z,69.57
2023-04-07T08:26:10.381Z,70.13
2023-04-07T08:28:33.301Z,70.46
2023-04-07T08:30:56.183Z,69.76
2023-04-07T08:33:24.595Z,68.28
2023-04-07T08:35:47.661Z,66.69
2023-04-07T08:38:10.845Z,65.90
2023-04-07T08:40:34.492Z,66.42
2023-04-07T08:42:59.477Z,67.67
2023-04-07T08:45:22.489Z,67.56
2023-04-07T08:47:48.080Z,66.39
2023-04-07T08:50:12.164Z,66.30
2023-04-07T08:52:41.328Z,66.68
2023-04-07T08:55:04.475Z,65.56
2023-04-07T08:57:32.362Z,66.38
2023-04-07T09:00:00.764Z,65.66
2023-04-07T09:02:24.038Z,68.10
2023-04-07T09:04:47.095Z,68.83
2023-04-07T09:07:09.781Z,70.15
2023-04-07T09:09:32.488Z,68.02
2023-04-07T09:11:55.594Z,67.43
2023-04-07T09:14:18.851Z,66.20
2023-04-07T09:16:42.028Z,64.14
2023-04-07T09:19:04.900Z,64.80
2023-04-07T09:21:46.775Z,64.00
2023-04-07T09:24:26.964Z,63.53
2023-04-07T09:26:49.682Z,64.77
2023-04-07T09:29:21.744Z,62.53
2023-04-07T09:31:52.076Z,63.59
2023-04-07T09:34:36.157Z,64.09
2023-04-07T09:36:59.288Z,63.67
2023-04-07T09:39:22.110Z,64.10
2023-04-07T09:41:45.213Z,63.85
2023-04-07T09:44:08.018Z,62.81
2023-04-07T09:46:30.805Z,64.13
2023-04-07T09:49:08.283Z,64.95
2023-04-07T09:51:31.197Z,65.65
2023-04-07T09:53:53.790Z,66.62
2023-04-07T09:56:19.388Z,67.15
2023-04-07T09:58:44.331Z,66.43
2023-04-07T10:01:09.540Z,64.69
2023-04-07T10:03:34.014Z,63.08
2023-04-07T10:05:57.330Z,61.52
2023-04-07T10:08:20.783Z,61.80
2023-04-07T10:10:44.009Z,60.55
2023-04-07T10:13:06.977Z,60.07
2023-04-07T10:15:30.683Z,59.52
2023-04-07T10:17:54.560Z,59.77
2023-04-07T10:20:21.008Z,59.18
2023-04-07T10:22:45.840Z,57.85
2023-04-07T10:25:11.727Z,58.23
2023-04-07T10:27:38.992Z,60.23
2023-04-07T10:30:06.060Z,59.33
2023-04-07T10:32:32.094Z,59.51
2023-04-07T10:34:54.789Z,59.56
2023-04-07T10:37:21.144Z,59.30
2023-04-07T10:39:44.147Z,60.52
2023-04-07T10:42:07.035Z,60.96
2023-04-07T10:44:38.828Z,60.99
2023-04-07T10:47:01.396Z,60.14
2023-04-07T10:49:24.082Z,61.30
2023-04-07T10:52:09.663Z,61.39
2023-04-07T10:54:32.289Z,61.43
2023-04-07T10:57:03.758Z,61.38
2023-04-07T10:59:27.926Z,60.52
2023-04-07T11:02:12.707Z,60.57
2023-04-07T11:04:39.350Z,60.59
2023-04-07T11:07:02.165Z,59.84
2023-04-07T11:09:25.884Z,60.20
2023-04-07T11:11:48.831Z,61.49
2023-04-07T11:14:12.034Z,61.16
2023-04-07T11:16:37.475Z,59.94
2023-04-07T11:19:00.108Z,58.75
2023-04-07T11:21:23.312Z,58.71
2023-04-07T11:23:48.476Z,59.34
2023-04-07T11:26:13.962Z,58.77
2023-04-07T11:28:52.944Z,58.85
2023-04-07T11:31:23.416Z,58.27
2023-04-07T11:33:53.886Z,57.82
2023-04-07T11:36:26.927Z,57.73
2023-04-07T11:38:49.666Z,57.54
2023-04-07T11:41:14.369Z,56.69
2023-04-07T11:43:37.895Z,57.32
2023-04-07T11:46:17.537Z,55.97
2023-04-07T11:48:42.361Z,54.71
2023-04-07T11:51:05.662Z,54.42
2023-04-07T11:53:33.952Z,55.00
2023-04-07T11:56:09.544Z,54.44
2023-04-07T11:58:32.612Z,56.33
2023-04-07T12:00:59.481Z,57.91
2023-04-07T12:03:22.610Z,59.41
2023-04-07T12:05:45.968Z,59.71
2023-04-07T12:08:08.693Z,59.09
2023-04-07T12:10:33.414Z,59.42
2023-04-07T12:12:58.108Z,60.20
2023-04-07T12:15:22.654Z,59.99
2023-04-07T12:17:47.695Z,59.69
2023-04-07T12:20:13.627Z,59.82
2023-04-07T12:22:36.565Z,59.07
2023-04-07T12:24:59.113Z,59.09
2023-04-07T12:27:32.530Z,59.60
2023-04-07T12:30:04.304Z,58.53
2023-04-07T12:32:27.205Z,58.29
2023-04-07T12:34:49.960Z,58.39
2023-04-07T12:37:12.625Z,59.31
2023-04-07T12:39:36.878Z,58.76
2023-04-07T12:41:59.767Z,58.70
2023-04-07T12:44:22.385Z,59.23
2023-04-07T12:46:45.531Z,57.94
2023-04-07T12:49:08.837Z,57.73
2023-04-07T12:51:33.571Z,57.31
2023-04-07T12:53:56.255Z,57.21
2023-04-07T12:56:18.849Z,57.46
2023-04-07T12:58:41.571Z,57.02
2023-04-07T13:01:04.589Z,56.99
2023-04-07T13:03:27.586Z,57.31
2023-04-07T13:05:50.531Z,57.20
2023-04-07T13:08:13.552Z,57.02
2023-04-07T13:10:38.271Z,56.64
2023-04-07T13:13:01.172Z,56.30
2023-04-07T13:15:24.726Z,56.59
2023-04-07T13:17:47.646Z,57.13
2023-04-07T13:20:11.072Z,57.46
2023-04-07T13:22:36.249Z,57.05
2023-04-07T13:25:00.729Z,57.44
2023-04-07T13:27:23.629Z,57.47
2023-04-07T13:29:49.159Z,57.47
2023-04-07T13:32:15.550Z,57.34
2023-04-07T13:34:38.500Z,58.35
2023-04-07T13:37:05.671Z,59.02
2023-04-07T13:39:28.491Z,58.55
2023-04-07T13:41:51.371Z,58.41
2023-04-07T13:44:14.034Z,59.01
2023-04-07T13:46:36.908Z,59.33
2023-04-07T13:48:59.525Z,59.67
2023-04-07T13:51:22.287Z,60.02
2023-04-07T13:53:45.719Z,59.84
2023-04-07T13:56:09.737Z,59.37
2023-04-07T13:58:32.327Z,60.04
2023-04-07T14:00:55.254Z,59.57
2023-04-07T14:03:18.170Z,59.53
2023-04-07T14:05:40.917Z,60.42
2023-04-07T14:08:03.698Z,60.53
2023-04-07T14:10:27.439Z,60.00
2023-04-07T14:12:49.967Z,59.78
2023-04-07T14:15:12.611Z,59.89
2023-04-07T14:17:35.737Z,61.64
2023-04-07T14:19:59.837Z,61.82
2023-04-07T14:22:22.475Z,63.94
2023-04-07T14:24:45.328Z,63.96
2023-04-07T14:27:07.930Z,66.08
2023-04-07T14:29:30.866Z,67.30
2023-04-07T14:31:53.499Z,67.88
2023-04-07T14:34:16.524Z,68.09
2023-04-07T14:36:39.227Z,69.44
2023-04-07T14:39:02.336Z,68.59
2023-04-07T14:41:25.063Z,68.90
2023-04-07T14:43:51.068Z,68.84
2023-04-07T14:46:15.746Z,69.06
2023-04-07T14:48:39.176Z,68.94
2023-04-07T14:51:08.794Z,69.02
2023-04-07T14:53:32.740Z,68.79
2023-04-07T14:55:56.174Z,67.99
2023-04-07T14:58:18.752Z,68.05
2023-04-07T15:00:41.518Z,68.16
2023-04-07T15:03:04.754Z,68.02
2023-04-07T15:05:30.274Z,67.60
2023-04-07T15:07:52.970Z,67.77
2023-04-07T15:10:17.209Z,67.85
2023-04-07T15:12:39.813Z,67.99
2023-04-07T15:15:02.581Z,67.47
2023-04-07T15:17:33.345Z,67.67
2023-04-07T15:20:06.423Z,68.14
2023-04-07T15:22:30.801Z,67.84
2023-04-07T15:24:54.204Z,68.08
2023-04-07T15:27:16.802Z,67.91
2023-04-07T15:29:42.291Z,67.65
2023-04-07T15:32:05.601Z,67.60
2023-04-07T15:34:28.263Z,67.32
2023-04-07T15:36:50.850Z,67.50
2023-04-07T15:39:15.019Z,68.00
2023-04-07T15:41:38.107Z,68.32
2023-04-07T15:44:01.372Z,68.22
2023-04-07T15:46:23.904Z,68.75
2023-04-07T15:48:47.829Z,68.69
2023-04-07T15:51:10.574Z,68.68
2023-04-07T15:53:33.324Z,68.75
2023-04-07T15:55:56.049Z,69.00
2023-04-07T15:58:18.689Z,68.99
2023-04-07T16:00:41.891Z,69.24
2023-04-07T16:03:05.732Z,69.31
2023-04-07T16:05:29.087Z,68.98
2023-04-07T16:07:51.784Z,68.51
2023-04-07T16:10:14.643Z,69.13
2023-04-07T16:12:37.986Z,69.45
2023-04-07T16:15:01.103Z,70.13
2023-04-07T16:17:23.919Z,70.29
2023-04-07T16:19:46.760Z,70.01
2023-04-07T16:22:09.984Z,70.19
2023-04-07T16:24:32.649Z,69.33
2023-04-07T16:26:55.964Z,69.50
2023-04-07T16:29:19.802Z,69.94
2023-04-07T16:31:44.296Z,70.55
2023-04-07T16:34:07.368Z,70.59
2023-04-07T16:36:29.927Z,70.92
2023-04-07T16:38:52.624Z,70.80
2023-04-07T16:41:15.601Z,70.70
2023-04-07T16:43:38.150Z,71.23
2023-04-07T16:46:01.734Z,72.09
2023-04-07T16:48:24.628Z,72.10
2023-04-07T16:50:47.326Z,71.85
2023-04-07T16:53:10.012Z,71.47
2023-04-07T16:55:36.310Z,71.92
2023-04-07T16:57:59.520Z,71.87
2023-04-07T17:00:22.421Z,71.35
2023-04-07T17:02:45.124Z,71.65
2023-04-07T17:05:08.200Z,71.09
2023-04-07T17:07:31.130Z,71.30
2023-04-07T17:09:54.950Z,71.99
2023-04-07T17:12:17.563Z,71.84
2023-04-07T17:14:40.281Z,71.81
2023-04-07T17:17:02.988Z,72.07
2023-04-07T17:19:25.772Z,72.11
2023-04-07T17:21:48.755Z,72.35
2023-04-07T17:24:13.000Z,72.21
2023-04-07T17:26:35.629Z,72.58
2023-04-07T17:28:58.876Z,72.88
2023-04-07T17:31:21.491Z,72.44
2023-04-07T17:33:44.253Z,72.42
2023-04-07T17:36:07.180Z,72.25
2023-04-07T17:38:31.078Z,72.10
2023-04-07T17:40:58.516Z,72.20
2023-04-07T17:43:21.963Z,72.29
2023-04-07T17:45:45.647Z,72.06
2023-04-07T17:48:12.068Z,71.80
2023-04-07T17:50:35.474Z,71.83
2023-04-07T17:53:00.429Z,71.90
2023-04-07T17:55:23.355Z,71.62
2023-04-07T17:57:45.944Z,71.95
2023-04-07T18:00:09.207Z,72.43
2023-04-07T18:02:40.403Z,72.76
2023-04-07T18:05:06.787Z,72.94
2023-04-07T18:07:29.891Z,72.66
2023-04-07T18:09:54.333Z,72.48
2023-04-07T18:12:17.516Z,72.36
2023-04-07T18:14:40.243Z,72.88
2023-04-07T18:17:02.826Z,72.59
2023-04-07T18:19:25.693Z,73.08
2023-04-07T18:21:49.935Z,72.94
2023-04-07T18:24:14.449Z,73.06
2023-04-07T18:26:37.871Z,72.86
2023-04-07T18:29:01.558Z,73.12
2023-04-07T18:31:24.198Z,73.25
2023-04-07T18:33:47.095Z,73.55
2023-04-07T18:36:09.947Z,73.76
2023-04-07T18:38:32.823Z,74.28
2023-04-07T18:40:55.540Z,74.62
2023-04-07T18:43:18.157Z,74.42
2023-04-07T18:45:40.730Z,75.15
2023-04-07T18:48:03.666Z,74.97
2023-04-07T18:50:26.611Z,75.78
2023-04-07T18:52:49.351Z,75.46
2023-04-07T18:55:11.996Z,75.36
2023-04-07T18:57:34.912Z,75.04
2023-04-07T18:59:58.605Z,75.00
2023-04-07T19:02:21.516Z,74.63
2023-04-07T19:04:44.595Z,75.27
2023-04-07T19:07:07.202Z,75.61
2023-04-07T19:09:30.303Z,76.12
2023-04-07T19:11:53.637Z,76.15
2023-04-07T19:14:16.729Z,75.54
2023-04-07T19:16:39.740Z,75.48
2023-04-07T19:19:02.908Z,75.61
2023-04-07T19:21:25.696Z,75.59
2023-04-07T19:23:48.896Z,75.31
2023-04-07T19:26:13.025Z,75.30
2023-04-07T19:28:35.729Z,75.41
2023-04-07T19:30:58.729Z,75.51
2023-04-07T19:33:21.645Z,75.13
2023-04-07T19:35:44.362Z,75.58
2023-04-07T19:38:07.338Z,75.66
2023-04-07T19:40:31.437Z,76.01
2023-04-07T19:42:56.183Z,76.26
2023-04-07T19:45:19.062Z,75.23
2023-04-07T19:47:42.560Z,75.65
2023-04-07T19:50:06.140Z,75.91
2023-04-07T19:52:31.176Z,76.08
2023-04-07T19:54:53.957Z,76.22
2023-04-07T19:57:16.568Z,76.40
2023-04-07T19:59:39.911Z,77.33
2023-04-07T20:02:02.597Z,77.45
2023-04-07T20:04:25.261Z,77.74
2023-04-07T20:06:47.898Z,77.85
2023-04-07T20:09:11.123Z,77.65
2023-04-07T20:11:33.755Z,77.80
2023-04-07T20:13:56.421Z,78.10
2023-04-07T20:16:19.024Z,76.76
2023-04-07T20:18:41.743Z,76.50
2023-04-07T20:21:07.568Z,76.43
2023-04-07T20:23:30.529Z,76.02
2023-04-07T20:25:53.179Z,76.21
2023-04-07T20:28:16.450Z,76.15
2023-04-07T20:30:40.593Z,76.17
2023-04-07T20:33:03.395Z,76.51
2023-04-07T20:35:26.256Z,76.86
2023-04-07T20:37:48.899Z,76.76
2023-04-07T20:40:13.503Z,76.99
2023-04-07T20:42:38.122Z,77.32
2023-04-07T20:45:03.810Z,77.16
2023-04-07T20:47:26.586Z,77.89
2023-04-07T20:49:53.119Z,77.73
2023-04-07T20:52:16.145Z,77.43
2023-04-07T20:54:38.746Z,77.99
2023-04-07T20:57:02.309Z,77.86
2023-04-07T20:59:25.080Z,77.52
2023-04-07T21:01:47.993Z,78.30
2023-04-07T21:04:11.515Z,78.77
2023-04-07T21:06:34.223Z,79.76
2023-04-07T21:08:56.944Z,80.66
2023-04-07T21:11:19.854Z,81.63
2023-04-07T21:13:42.600Z,80.77
2023-04-07T21:16:05.760Z,81.32
2023-04-07T21:18:28.606Z,81.50
2023-04-07T21:20:51.516Z,81.80
2023-04-07T21:23:14.235Z,82.91
2023-04-07T21:25:38.173Z,83.05
2023-04-07T21:28:00.859Z,82.94
2023-04-07T21:30:24.440Z,83.56
2023-04-07T21:32:47.269Z,83.74
2023-04-07T21:35:09.892Z,83.59
2023-04-07T21:37:32.550Z,83.26
2023-04-07T21:39:55.752Z,83.56
2023-04-07T21:42:18.472Z,84.14
2023-04-07T21:44:41.129Z,84.70
2023-04-07T21:47:03.719Z,84.34
2023-04-07T21:49:26.520Z,84.50
2023-04-07T21:51:49.356Z,84.65
2023-04-07T21:54:12.584Z,85.21
2023-04-07T21:56:35.210Z,85.68
2023-04-07T21:58:58.690Z,85.89
2023-04-07T22:01:21.307Z,85.26
2023-04-07T22:03:45.775Z,85.45
2023-04-07T22:06:08.640Z,85.57
2023-04-07T22:08:31.414Z,86.01
2023-04-07T22:10:59.242Z,85.91
2023-04-07T22:13:21.880Z,86.30
2023-04-07T22:15:45.506Z,85.64
2023-04-07T22:18:08.240Z,86.04
2023-04-07T22:20:30.874Z,85.89
2023-04-07T22:22:57.444Z,85.94
2023-04-07T22:25:20.600Z,85.92
2023-04-07T22:27:43.222Z,85.96
2023-04-07T22:30:10.009Z,86.22
2023-04-07T22:32:34.493Z,86.45
2023-04-07T22:34:57.932Z,86.24
2023-04-07T22:37:20.564Z,86.16
2023-04-07T22:39:45.671Z,86.41
2023-04-07T22:42:08.548Z,86.80
2023-04-07T22:44:31.271Z,86.74
2023-04-07T22:46:53.977Z,86.89
2023-04-07T22:49:16.769Z,86.72
2023-04-07T22:51:39.539Z,86.83
2023-04-07T22:54:02.198Z,87.08
2023-04-07T22:56:25.488Z,87.11
2023-04-07T22:58:48.575Z,87.16
2023-04-07T23:01:14.759Z,87.08
2023-04-07T23:03:37.446Z,86.73
2023-04-07T23:06:01.373Z,86.68
2023-04-07T23:08:24.523Z,86.57
2023-04-07T23:10:47.642Z,86.35
2023-04-07T23:13:10.358Z,86.78
2023-04-07T23:15:35.852Z,86.60
2023-04-07T23:17:58.434Z,86.74
2023-04-07T23:20:21.298Z,86.79
2023-04-07T23:22:43.863Z,86.92
2023-04-07T23:25:07.460Z,86.95
2023-04-07T23:27:30.126Z,86.86
2023-04-07T23:29:58.143Z,87.17
2023-04-07T23:32:21.486Z,87.23
2023-04-07T23:34:44.397Z,87.16
2023-04-07T23:37:07.009Z,87.46
2023-04-07T23:39:29.715Z,87.53
2023-04-07T23:41:52.437Z,87.60
2023-04-07T23:44:15.027Z,87.56
2023-04-07T23:46:37.574Z,87.79
2023-04-07T23:49:00.608Z,87.63
2023-04-07T23:51:24.021Z,87.28
2023-04-07T23:53:46.952Z,87.30
2023-04-07T23:56:09.716Z,87.38
2023-04-07T23:58:32.511Z,87.10
